createdAt,value
2023-05-07T00:02:15.326Z,16.00
2023-05-07T00:04:42.011Z,17.60
2023-05-07T00:07:08.674Z,15.97
2023-05-07T00:09:35.281Z,15.90
2023-05-07T00:12:02.483Z,12.97
2023-05-07T00:14:29.243Z,15.43
2023-05-07T00:16:56.621Z,13.77
2023-05-07T00:19:23.337Z,14.67
2023-05-07T00:21:50.632Z,16.80
2023-05-07T00:24:17.707Z,14.40
2023-05-07T00:26:44.253Z,14.83
2023-05-07T00:29:11.847Z,15.60
2023-05-07T00:31:38.460Z,16.33
2023-05-07T00:34:05.048Z,14.53
2023-05-07T00:36:31.867Z,23.10
2023-05-07T00:39:01.436Z,15.50
2023-05-07T00:41:28.062Z,17.27
2023-05-07T00:43:54.677Z,18.40
2023-05-07T00:46:22.139Z,14.57
2023-05-07T00:48:50.699Z,17.20
2023-05-07T00:51:18.400Z,14.70
2023-05-07T00:53:46.127Z,15.67
2023-05-07T00:56:13.037Z,18.50
2023-05-07T00:58:39.877Z,22.90
2023-05-07T01:01:07.340Z,16.80
2023-05-07T01:03:34.197Z,16.40
2023-05-07T01:06:02.719Z,18.30
2023-05-07T01:08:31.121Z,15.37
2023-05-07T01:10:58.360Z,13.30
2023-05-07T01:13:25.959Z,16.40
2023-05-07T01:15:53.049Z,20.67
2023-05-07T01:18:20.182Z,13.63
2023-05-07T01:20:47.152Z,14.43
2023-05-07T01:23:15.356Z,16.40
2023-05-07T01:25:42.125Z,18.47
2023-05-07T01:28:10.196Z,18.63
2023-05-07T01:30:46.123Z,15.00
2023-05-07T01:33:17.124Z,15.70
2023-05-07T01:35:48.479Z,17.27
2023-05-07T01:38:15.779Z,13.57
2023-05-07T01:40:42.853Z,13.33
2023-05-07T01:43:10.592Z,13.47
2023-05-07T01:45:39.454Z,13.40
2023-05-07T01:48:08.069Z,15.00
2023-05-07T01:50:36.106Z,17.70
2023-05-07T01:53:03.440Z,15.37
2023-05-07T01:55:30.548Z,14.10
2023-05-07T01:57:57.160Z,14.17
2023-05-07T02:00:24.003Z,13.20
2023-05-07T02:02:50.741Z,13.90
2023-05-07T02:05:27.088Z,13.23
2023-05-07T02:08:02.051Z,14.40
2023-05-07T02:10:30.277Z,12.00
2023-05-07T02:12:56.849Z,11.63
2023-05-07T02:15:23.422Z,12.53
2023-05-07T02:18:19.484Z,10.60
2023-05-07T02:20:46.645Z,13.83
2023-05-07T02:23:13.455Z,13.77
2023-05-07T02:25:40.586Z,11.67
2023-05-07T02:28:07.206Z,12.30
2023-05-07T02:30:42.963Z,10.97
2023-05-07T02:33:09.819Z,11.13
2023-05-07T02:35:36.641Z,11.47
2023-05-07T02:38:03.793Z,11.70
2023-05-07T02:40:31.003Z,14.57
2023-05-07T02:42:57.560Z,11.17
2023-05-07T02:45:24.311Z,10.57
2023-05-07T02:47:53.351Z,11.70
2023-05-07T02:50:20.336Z,10.07
2023-05-07T02:52:48.494Z,17.63
2023-05-07T02:55:15.210Z,10.83
2023-05-07T02:57:41.796Z,8.70
2023-05-07T03:00:16.717Z,10.47
2023-05-07T03:02:51.686Z,11.57
2023-05-07T03:05:19.294Z,11.23
2023-05-07T03:07:47.119Z,11.73
2023-05-07T03:10:14.423Z,13.17
2023-05-07T03:12:41.315Z,14.03
2023-05-07T03:15:10.833Z,12.07
2023-05-07T03:17:37.706Z,12.00
2023-05-07T03:20:04.696Z,13.60
2023-05-07T03:22:32.530Z,11.23
2023-05-07T03:24:59.487Z,17.37
2023-05-07T03:27:26.074Z,13.53
2023-05-07T03:29:53.834Z,10.47
2023-05-07T03:32:21.152Z,14.87
2023-05-07T03:34:48.531Z,12.13
2023-05-07T03:37:15.150Z,12.10
2023-05-07T03:39:42.842Z,13.50
2023-05-07T03:42:10.283Z,10.40
2023-05-07T03:44:38.265Z,10.00
2023-05-07T03:47:05.422Z,11.10
2023-05-07T03:49:32.739Z,13.40
2023-05-07T03:51:59.816Z,10.17
2023-05-07T03:54:26.434Z,8.27
2023-05-07T03:56:53.350Z,8.80
2023-05-07T03:59:20.047Z,9.43
2023-05-07T04:01:48.179Z,9.70
2023-05-07T04:04:17.712Z,9.13
2023-05-07T04:06:44.436Z,10.57
2023-05-07T04:09:11.925Z,10.03
2023-05-07T04:11:41.016Z,9.93
2023-05-07T04:14:09.933Z,7.60
2023-05-07T04:16:37.126Z,7.60
2023-05-07T04:19:04.471Z,7.40
2023-05-07T04:21:31.981Z,7.80
2023-05-07T04:23:59.688Z,8.30
2023-05-07T04:26:26.362Z,9.37
2023-05-07T04:28:53.504Z,8.73
2023-05-07T04:31:20.826Z,8.07
2023-05-07T04:33:52.752Z,7.10
2023-05-07T04:36:19.903Z,8.60
2023-05-07T04:39:00.103Z,7.77
2023-05-07T04:41:27.907Z,8.23
2023-05-07T04:43:54.554Z,7.80
2023-05-07T04:46:24.913Z,6.83
2023-05-07T04:48:52.375Z,7.00
2023-05-07T04:51:19.392Z,6.90
2023-05-07T04:53:46.095Z,7.17
2023-05-07T04:56:13.862Z,7.17
2023-05-07T04:58:43.140Z,6.93
2023-05-07T05:01:10.694Z,7.20
2023-05-07T05:03:38.799Z,6.40
2023-05-07T05:06:05.592Z,6.33
2023-05-07T05:08:34.318Z,6.40
2023-05-07T05:13:31.725Z,7.93
2023-05-07T05:15:59.641Z,6.37
2023-05-07T05:18:28.123Z,6.20
2023-05-07T05:20:55.909Z,6.30
2023-05-07T05:23:22.644Z,6.40
2023-05-07T05:25:49.263Z,5.93
2023-05-07T05:28:16.257Z,6.87
2023-05-07T05:30:42.840Z,6.47
2023-05-07T05:33:09.733Z,6.70
2023-05-07T05:35:36.601Z,7.00
2023-05-07T05:38:08.038Z,7.60
2023-05-07T05:40:34.831Z,6.97
2023-05-07T05:43:01.699Z,7.43
2023-05-07T05:45:28.600Z,6.90
2023-05-07T05:47:57.860Z,7.73
2023-05-07T05:50:24.751Z,7.60
2023-05-07T05:52:52.513Z,10.30
2023-05-07T05:55:20.874Z,9.37
2023-05-07T05:57:47.530Z,8.20
2023-05-07T06:00:14.941Z,7.57
2023-05-07T06:02:48.105Z,7.43
2023-05-07T06:05:20.898Z,6.67
2023-05-07T06:07:51.040Z,7.13
2023-05-07T06:10:18.029Z,6.93
2023-05-07T06:12:45.453Z,7.07
2023-05-07T06:15:12.094Z,6.47
2023-05-07T06:17:39.503Z,9.73
2023-05-07T06:20:07.934Z,6.40
2023-05-07T06:22:34.924Z,5.83
2023-05-07T06:25:01.910Z,7.53
2023-05-07T06:27:29.118Z,5.67
2023-05-07T06:29:56.608Z,5.87
2023-05-07T06:32:23.540Z,6.47
2023-05-07T06:34:51.676Z,5.93
2023-05-07T06:37:19.554Z,6.10
2023-05-07T06:40:00.266Z,6.13
2023-05-07T06:42:28.279Z,6.27
2023-05-07T06:44:59.126Z,5.53
2023-05-07T06:47:26.913Z,5.87
2023-05-07T06:49:55.761Z,5.83
2023-05-07T06:52:26.132Z,6.57
2023-05-07T06:54:53.827Z,7.33
2023-05-07T06:57:22.975Z,6.27
2023-05-07T06:59:49.654Z,5.87
2023-05-07T07:02:18.202Z,5.33
2023-05-07T07:04:46.325Z,5.27
2023-05-07T07:07:13.955Z,6.43
2023-05-07T07:09:42.413Z,6.13
2023-05-07T07:12:10.311Z,5.73
2023-05-07T07:14:39.981Z,6.93
2023-05-07T07:17:06.896Z,6.63
2023-05-07T07:19:34.881Z,6.87
2023-05-07T07:22:03.502Z,6.37
2023-05-07T07:24:31.357Z,6.40
2023-05-07T07:27:01.869Z,6.80
2023-05-07T07:29:29.527Z,5.97
2023-05-07T07:31:57.710Z,6.60
2023-05-07T07:34:24.629Z,6.80
2023-05-07T07:36:51.292Z,5.90
2023-05-07T07:39:19.315Z,7.00
2023-05-07T07:41:48.362Z,6.80
2023-05-07T07:44:16.774Z,6.17
2023-05-07T07:46:47.457Z,6.37
2023-05-07T07:49:15.498Z,7.77
2023-05-07T07:51:42.865Z,6.73
2023-05-07T07:54:11.029Z,7.03
2023-05-07T07:56:38.161Z,7.03
2023-05-07T07:59:06.250Z,7.73
2023-05-07T08:01:34.098Z,7.17
2023-05-07T08:04:01.352Z,7.00
2023-05-07T08:06:30.135Z,6.27
2023-05-07T08:08:57.150Z,7.90
2023-05-07T08:11:23.755Z,6.90
2023-05-07T08:13:52.161Z,7.00
2023-05-07T08:16:19.488Z,6.60
2023-05-07T08:18:46.341Z,6.97
2023-05-07T08:21:13.161Z,8.80
2023-05-07T08:23:39.850Z,10.17
2023-05-07T08:26:09.272Z,7.13
2023-05-07T08:28:36.731Z,8.83
2023-05-07T08:31:03.408Z,7.27
2023-05-07T08:33:34.703Z,7.33
2023-05-07T08:36:01.631Z,7.40
2023-05-07T08:38:28.791Z,8.00
2023-05-07T08:40:55.622Z,7.77
2023-05-07T08:43:24.054Z,6.80
2023-05-07T08:45:55.935Z,7.83
2023-05-07T08:48:28.176Z,7.20
2023-05-07T08:51:03.413Z,7.50
2023-05-07T08:53:30.064Z,6.00
2023-05-07T08:55:57.623Z,8.47
2023-05-07T08:58:24.370Z,8.40
2023-05-07T09:00:53.201Z,7.63
2023-05-07T09:03:20.862Z,7.73
2023-05-07T09:05:50.834Z,7.70
2023-05-07T09:08:19.069Z,7.23
2023-05-07T09:10:49.249Z,8.13
2023-05-07T09:13:16.842Z,8.33
2023-05-07T09:15:43.454Z,8.93
2023-05-07T09:18:10.627Z,8.00
2023-05-07T09:20:39.681Z,7.77
2023-05-07T09:23:08.060Z,7.50
2023-05-07T09:25:37.244Z,7.10
2023-05-07T09:28:11.691Z,6.47
2023-05-07T09:30:38.431Z,8.50
2023-05-07T09:33:08.332Z,7.03
2023-05-07T09:35:38.694Z,10.60
2023-05-07T09:38:09.844Z,6.93
2023-05-07T09:40:37.322Z,6.93
2023-05-07T09:43:13.722Z,7.83
2023-05-07T09:45:47.550Z,6.40
2023-05-07T09:48:18.079Z,6.03
2023-05-07T09:50:53.878Z,6.13
2023-05-07T09:53:24.145Z,6.40
2023-05-07T09:55:52.880Z,6.47
2023-05-07T09:58:21.966Z,6.37
2023-05-07T10:00:50.628Z,5.00
2023-05-07T10:03:20.531Z,6.13
2023-05-07T10:05:59.448Z,6.43
2023-05-07T10:08:26.917Z,5.80
2023-05-07T10:10:57.217Z,6.43
2023-05-07T10:13:27.374Z,5.43
2023-05-07T10:15:57.094Z,6.27
2023-05-07T10:18:30.819Z,5.50
2023-05-07T10:21:09.199Z,6.50
2023-05-07T10:23:37.077Z,5.57
2023-05-07T10:26:09.251Z,6.00
2023-05-07T10:28:41.885Z,6.30
2023-05-07T10:31:45.253Z,6.43
2023-05-07T10:34:17.722Z,6.10
2023-05-07T10:36:45.912Z,5.90
2023-05-07T10:39:13.661Z,5.57
2023-05-07T10:41:41.079Z,5.73
2023-05-07T10:44:08.447Z,5.97
2023-05-07T10:46:36.974Z,8.03
2023-05-07T10:49:22.180Z,5.10
2023-05-07T10:52:18.527Z,5.67
2023-05-07T10:55:22.281Z,5.33
2023-05-07T10:57:57.151Z,5.50
2023-05-07T11:03:02.412Z,5.00
2023-05-07T11:05:37.620Z,5.20
2023-05-07T11:08:20.041Z,4.20
2023-05-07T11:10:57.373Z,4.67
2023-05-07T11:13:46.290Z,7.40
2023-05-07T11:16:28.648Z,5.90
2023-05-07T11:19:03.286Z,4.17
2023-05-07T11:21:42.883Z,4.20
2023-05-07T11:24:43.215Z,4.13
2023-05-07T11:27:11.234Z,4.50
2023-05-07T11:29:38.269Z,3.80
2023-05-07T11:32:09.654Z,4.00
2023-05-07T11:34:55.745Z,4.30
2023-05-07T11:37:24.542Z,4.00
2023-05-07T11:40:07.678Z,4.27
2023-05-07T11:42:39.718Z,7.53
2023-05-07T11:45:08.253Z,3.60
2023-05-07T11:47:35.611Z,4.07
2023-05-07T11:50:06.025Z,3.97
2023-05-07T11:52:33.132Z,5.13
2023-05-07T11:55:00.947Z,4.57
2023-05-07T11:57:28.527Z,3.63
2023-05-07T11:59:59.174Z,5.00
2023-05-07T12:02:27.328Z,7.27
2023-05-07T12:04:54.739Z,4.87
2023-05-07T12:07:21.996Z,4.77
2023-05-07T12:09:49.095Z,4.07
2023-05-07T12:12:18.140Z,6.57
2023-05-07T12:14:45.844Z,5.80
2023-05-07T12:19:43.793Z,4.43
2023-05-07T12:22:11.193Z,4.53
2023-05-07T12:24:57.357Z,4.60
2023-05-07T12:27:24.656Z,5.60
2023-05-07T12:29:51.895Z,4.90
2023-05-07T12:32:20.540Z,4.83
2023-05-07T12:34:50.258Z,4.90
2023-05-07T12:37:17.198Z,4.90
2023-05-07T12:40:07.138Z,4.53
2023-05-07T12:42:36.826Z,4.60
2023-05-07T12:45:14.814Z,5.13
2023-05-07T12:47:46.164Z,5.87
2023-05-07T12:50:15.058Z,5.10
2023-05-07T12:52:41.629Z,4.90
2023-05-07T12:55:09.397Z,5.57
2023-05-07T12:57:41.218Z,5.90
2023-05-07T13:00:08.357Z,6.33
2023-05-07T13:02:35.823Z,5.13
2023-05-07T13:05:02.932Z,4.87
2023-05-07T13:07:30.827Z,4.87
2023-05-07T13:09:57.896Z,5.17
2023-05-07T13:12:24.473Z,5.63
2023-05-07T13:14:51.015Z,4.23
2023-05-07T13:17:19.613Z,4.90
2023-05-07T13:19:46.248Z,6.37
2023-05-07T13:22:14.360Z,4.37
2023-05-07T13:24:42.660Z,4.50
2023-05-07T13:27:09.221Z,5.20
2023-05-07T13:29:35.750Z,4.43
2023-05-07T13:32:02.596Z,4.57
2023-05-07T13:34:29.226Z,5.90
2023-05-07T13:36:56.426Z,8.17
2023-05-07T13:39:23.012Z,7.83
2023-05-07T13:41:49.562Z,5.20
2023-05-07T13:44:16.194Z,4.70
2023-05-07T13:46:42.764Z,5.33
2023-05-07T13:49:09.306Z,5.60
2023-05-07T13:51:36.171Z,4.40
2023-05-07T13:54:02.730Z,4.20
2023-05-07T13:56:31.877Z,4.60
2023-05-07T13:59:00.464Z,5.40
2023-05-07T14:01:27.985Z,5.00
2023-05-07T14:03:56.644Z,4.87
2023-05-07T14:06:23.343Z,4.53
2023-05-07T14:08:51.206Z,6.37
2023-05-07T14:11:18.064Z,7.87
2023-05-07T14:13:44.612Z,5.40
2023-05-07T14:16:11.644Z,8.83
2023-05-07T14:18:39.511Z,4.73
2023-05-07T14:21:07.280Z,7.70
2023-05-07T14:23:34.062Z,4.83
2023-05-07T14:26:00.987Z,5.10
2023-05-07T14:28:27.608Z,6.00
2023-05-07T14:30:54.923Z,5.33
2023-05-07T14:33:21.473Z,5.10
2023-05-07T14:35:49.877Z,5.03
2023-05-07T14:38:16.631Z,6.40
2023-05-07T14:40:43.311Z,5.63
2023-05-07T14:43:09.900Z,4.50
2023-05-07T14:45:36.676Z,4.77
2023-05-07T14:48:03.820Z,7.87
2023-05-07T14:50:30.998Z,4.70
2023-05-07T14:52:57.649Z,4.47
2023-05-07T14:55:24.232Z,4.47
2023-05-07T14:57:50.774Z,5.70
2023-05-07T15:00:17.474Z,8.20
2023-05-07T15:02:44.479Z,4.30
2023-05-07T15:05:11.730Z,5.23
2023-05-07T15:07:38.859Z,5.17
2023-05-07T15:10:06.086Z,4.70
2023-05-07T15:12:32.873Z,3.90
2023-05-07T15:14:59.499Z,4.00
2023-05-07T15:17:26.303Z,4.67
2023-05-07T15:19:54.383Z,4.60
2023-05-07T15:22:22.489Z,4.93
2023-05-07T15:24:49.384Z,4.53
2023-05-07T15:27:17.647Z,4.80
2023-05-07T15:29:44.537Z,8.77
2023-05-07T15:32:11.469Z,8.83
2023-05-07T15:34:38.224Z,8.53
2023-05-07T15:37:04.899Z,12.17
2023-05-07T15:39:32.014Z,10.93
2023-05-07T15:41:58.945Z,5.03
2023-05-07T15:44:29.435Z,3.53
2023-05-07T15:46:56.680Z,3.20
2023-05-07T15:49:23.372Z,3.70
2023-05-07T15:51:51.953Z,3.47
2023-05-07T15:54:20.951Z,4.27
2023-05-07T15:56:48.686Z,3.00
2023-05-07T15:59:17.114Z,2.87
2023-05-07T16:01:45.085Z,3.97
2023-05-07T16:04:12.146Z,3.53
2023-05-07T16:06:39.091Z,3.10
2023-05-07T16:09:05.893Z,3.13
2023-05-07T16:11:33.889Z,3.00
2023-05-07T16:14:01.408Z,4.40
2023-05-07T16:16:30.032Z,3.57
2023-05-07T16:18:57.412Z,5.33
2023-05-07T16:21:24.062Z,3.57
2023-05-07T16:23:51.116Z,4.27
2023-05-07T16:26:17.898Z,4.20
2023-05-07T16:28:44.874Z,3.13
2023-05-07T16:31:11.582Z,3.27
2023-05-07T16:33:38.738Z,3.90
2023-05-07T16:36:05.964Z,6.47
2023-05-07T16:38:34.042Z,5.50
2023-05-07T16:41:01.414Z,3.43
2023-05-07T16:43:28.297Z,3.93
2023-05-07T16:45:55.038Z,3.20
2023-05-07T16:48:21.934Z,3.20
2023-05-07T16:50:48.949Z,3.53
2023-05-07T16:53:15.832Z,4.93
2023-05-07T16:55:43.154Z,5.23
2023-05-07T16:58:11.473Z,5.90
2023-05-07T17:00:50.075Z,6.27
2023-05-07T17:03:18.839Z,4.17
2023-05-07T17:05:46.264Z,4.80
2023-05-07T17:08:15.194Z,5.20
2023-05-07T17:10:42.030Z,3.63
2023-05-07T17:13:08.885Z,3.17
2023-05-07T17:15:35.674Z,3.43
2023-05-07T17:18:02.472Z,3.87
2023-05-07T17:20:29.672Z,3.90
2023-05-07T17:22:56.664Z,6.37
2023-05-07T17:25:23.739Z,3.40
2023-05-07T17:27:50.538Z,3.00
2023-05-07T17:30:18.276Z,4.30
2023-05-07T17:32:48.180Z,7.50
2023-05-07T17:35:15.270Z,3.37
2023-05-07T17:37:46.827Z,2.90
2023-05-07T17:40:13.909Z,3.60
2023-05-07T17:42:42.409Z,4.23
2023-05-07T17:45:09.557Z,3.23
2023-05-07T17:47:36.401Z,4.70
2023-05-07T17:50:05.826Z,3.47
2023-05-07T17:52:32.505Z,3.43
2023-05-07T17:54:59.695Z,2.57
2023-05-07T17:57:26.722Z,3.97
2023-05-07T17:59:53.638Z,4.07
2023-05-07T18:02:21.206Z,4.00
2023-05-07T18:04:47.991Z,3.60
2023-05-07T18:07:14.763Z,3.43
2023-05-07T18:09:41.721Z,5.70
2023-05-07T18:12:08.539Z,3.77
2023-05-07T18:14:35.612Z,2.83
2023-05-07T18:17:02.366Z,2.77
2023-05-07T18:19:29.007Z,6.50
2023-05-07T18:21:58.214Z,3.20
2023-05-07T18:24:25.428Z,2.70
2023-05-07T18:26:52.104Z,4.37
2023-05-07T18:29:18.784Z,6.33
2023-05-07T18:31:46.474Z,3.20
2023-05-07T18:34:14.237Z,3.00
2023-05-07T18:36:40.946Z,8.70
2023-05-07T18:39:08.641Z,3.40
2023-05-07T18:41:38.650Z,4.90
2023-05-07T18:44:05.999Z,3.57
2023-05-07T18:46:32.787Z,3.93
2023-05-07T18:49:01.094Z,4.60
2023-05-07T18:51:27.859Z,6.30
2023-05-07T18:53:54.659Z,5.20
2023-05-07T18:56:22.095Z,3.90
2023-05-07T18:58:48.945Z,4.03
2023-05-07T19:01:15.660Z,4.40
2023-05-07T19:03:43.042Z,4.10
2023-05-07T19:06:09.826Z,3.83
2023-05-07T19:08:36.500Z,4.67
2023-05-07T19:11:03.571Z,6.30
2023-05-07T19:13:30.787Z,6.87
2023-05-07T19:15:57.780Z,4.80
2023-05-07T19:18:24.927Z,4.50
2023-05-07T19:20:53.640Z,4.50
2023-05-07T19:23:22.421Z,4.10
2023-05-07T19:25:49.267Z,4.47
2023-05-07T19:28:16.408Z,4.43
2023-05-07T19:30:44.043Z,4.70
2023-05-07T19:33:11.005Z,4.40
2023-05-07T19:35:37.955Z,4.57
2023-05-07T19:38:06.028Z,6.50
2023-05-07T19:40:32.893Z,4.30
2023-05-07T19:42:59.857Z,5.17
2023-05-07T19:45:26.556Z,4.70
2023-05-07T19:47:53.397Z,5.30
2023-05-07T19:50:20.696Z,4.60
2023-05-07T19:52:48.006Z,4.67
2023-05-07T19:55:15.181Z,7.43
2023-05-07T19:57:42.436Z,4.87
2023-05-07T20:00:09.954Z,4.07
2023-05-07T20:02:43.621Z,4.10
2023-05-07T20:05:12.915Z,4.93
2023-05-07T20:07:40.934Z,4.30
2023-05-07T20:10:08.447Z,4.63
2023-05-07T20:12:35.275Z,6.93
2023-05-07T20:15:02.644Z,4.03
2023-05-07T20:17:31.594Z,4.60
2023-05-07T20:19:58.514Z,11.07
2023-05-07T20:22:25.621Z,4.70
2023-05-07T20:24:52.694Z,4.70
2023-05-07T20:27:22.071Z,4.43
2023-05-07T20:29:49.040Z,4.43
2023-05-07T20:32:15.739Z,4.70
2023-05-07T20:34:46.337Z,4.40
2023-05-07T20:37:16.148Z,4.30
2023-05-07T20:39:43.424Z,5.93
2023-05-07T20:42:10.278Z,6.33
2023-05-07T20:44:37.069Z,7.10
2023-05-07T20:47:04.482Z,7.20
2023-05-07T20:49:31.153Z,8.00
2023-05-07T20:51:57.867Z,7.47
2023-05-07T20:54:27.836Z,4.90
2023-05-07T20:56:55.278Z,5.33
2023-05-07T20:59:21.935Z,4.27
2023-05-07T21:01:48.862Z,5.20
2023-05-07T21:04:15.795Z,5.00
2023-05-07T21:06:43.521Z,6.53
2023-05-07T21:09:11.198Z,4.83
2023-05-07T21:11:38.507Z,7.70
2023-05-07T21:14:05.127Z,4.63
2023-05-07T21:16:31.738Z,4.90
2023-05-07T21:18:58.301Z,4.70
2023-05-07T21:21:24.929Z,4.53
2023-05-07T21:23:53.362Z,5.30
2023-05-07T21:26:20.562Z,4.80
2023-05-07T21:28:47.423Z,4.43
2023-05-07T21:31:14.087Z,4.73
2023-05-07T21:33:42.994Z,4.27
2023-05-07T21:36:10.055Z,4.93
2023-05-07T21:38:38.105Z,5.10
2023-05-07T21:41:04.985Z,4.97
2023-05-07T21:43:31.645Z,5.17
2023-05-07T21:45:59.236Z,5.27
2023-05-07T21:48:26.676Z,8.07
2023-05-07T21:51:03.953Z,4.97
2023-05-07T21:53:31.682Z,5.87
2023-05-07T21:56:00.507Z,4.03
2023-05-07T21:58:27.101Z,4.43
2023-05-07T22:00:53.856Z,5.00
2023-05-07T22:03:20.918Z,5.37
2023-05-07T22:05:49.729Z,4.97
2023-05-07T22:08:16.648Z,4.87
2023-05-07T22:10:43.585Z,3.97
2023-05-07T22:13:10.391Z,5.20
2023-05-07T22:15:45.474Z,5.20
2023-05-07T22:18:20.092Z,5.27
2023-05-07T22:20:47.370Z,5.70
2023-05-07T22:23:13.952Z,4.70
2023-05-07T22:25:40.521Z,5.33
2023-05-07T22:28:07.059Z,5.33
2023-05-07T22:30:33.728Z,5.60
2023-05-07T22:33:00.309Z,5.57
2023-05-07T22:35:26.999Z,5.07
2023-05-07T22:37:53.545Z,5.90
2023-05-07T22:40:21.151Z,4.50
2023-05-07T22:42:47.963Z,5.20
2023-05-07T22:45:14.500Z,8.93
2023-05-07T22:47:41.175Z,5.50
2023-05-07T22:50:08.245Z,4.53
2023-05-07T22:52:35.109Z,4.73
2023-05-07T22:55:01.677Z,4.67
2023-05-07T22:57:28.249Z,4.53
2023-05-07T22:59:57.916Z,4.70
2023-05-07T23:02:24.734Z,4.37
2023-05-07T23:04:51.577Z,4.87
2023-05-07T23:07:18.145Z,4.67
2023-05-07T23:09:44.702Z,5.07
2023-05-07T23:12:11.268Z,6.80
2023-05-07T23:14:38.153Z,4.13
2023-05-07T23:17:04.792Z,4.07
2023-05-07T23:19:31.419Z,4.20
2023-05-07T23:21:58.441Z,4.00
2023-05-07T23:24:25.052Z,4.60
2023-05-07T23:26:52.002Z,5.43
2023-05-07T23:29:19.193Z,4.60
2023-05-07T23:31:45.741Z,4.57
2023-05-07T23:34:12.564Z,4.40
2023-05-07T23:36:39.127Z,4.80
2023-05-07T23:39:06.128Z,5.20
2023-05-07T23:41:33.068Z,3.90
2023-05-07T23:43:59.604Z,4.13
2023-05-07T23:46:26.801Z,5.00
2023-05-07T23:48:53.405Z,5.50
2023-05-07T23:51:20.400Z,4.30
2023-05-07T23:53:46.958Z,4.63
2023-05-07T23:56:13.550Z,4.30
2023-05-07T23:58:40.127Z,4.20
